createdAt,value
2022-11-16T00:00:37.593Z,8.68
2022-11-16T00:04:32.178Z,5.93
2022-11-16T00:16:09.072Z,7.57
2022-11-16T00:24:46.754Z,10.35
2022-11-16T00:42:03.911Z,5.90
2022-11-16T01:18:03.473Z,5.93
2022-11-16T01:21:51.073Z,8.25
2022-11-16T02:10:04.955Z,8.00
2022-11-16T02:14:18.314Z,6.82
2022-11-16T02:34:26.679Z,4.95
2022-11-16T02:47:54.239Z,6.20
2022-11-16T03:24:20.408Z,6.07
2022-11-16T03:30:25.453Z,7.43
2022-11-16T03:33:32.510Z,11.07
2022-11-16T07:09:00.441Z,9.98
2022-11-16T07:21:53.843Z,13.73
2022-11-16T07:25:45.644Z,12.88
2022-11-16T07:37:58.721Z,13.93
2022-11-16T07:52:49.631Z,20.33
2022-11-16T07:56:30.591Z,18.58
2022-11-16T07:59:33.191Z,16.60
2022-11-16T08:02:21.635Z,19.08
2022-11-16T08:05:30.155Z,17.95
2022-11-16T08:08:03.475Z,16.33
2022-11-16T08:10:54.033Z,23.63
2022-11-16T08:13:28.473Z,11.73
2022-11-16T08:16:10.512Z,13.57
2022-11-16T08:18:45.313Z,13.75
2022-11-16T08:21:22.836Z,18.65
2022-11-16T08:24:01.474Z,17.65
2022-11-16T08:26:39.976Z,13.40
2022-11-16T08:29:19.196Z,15.23
2022-11-16T08:32:29.758Z,11.57
2022-11-16T08:35:04.659Z,7.68
2022-11-16T08:37:37.827Z,10.18
2022-11-16T08:40:18.313Z,17.73
2022-11-16T08:43:01.084Z,11.95
2022-11-16T08:45:41.235Z,15.50
2022-11-16T08:48:13.592Z,17.67
2022-11-16T08:51:15.418Z,12.95
2022-11-16T08:53:54.634Z,9.85
2022-11-16T08:56:32.487Z,8.77
2022-11-16T08:59:05.236Z,11.48
2022-11-16T09:01:38.639Z,11.38
2022-11-16T09:04:13.031Z,11.13
2022-11-16T09:06:50.735Z,7.93
2022-11-16T09:09:23.922Z,10.23
2022-11-16T09:12:05.913Z,7.47
2022-11-16T09:14:39.950Z,10.18
2022-11-16T09:17:22.962Z,6.75
2022-11-16T09:19:55.999Z,8.85
2022-11-16T09:22:24.779Z,7.65
2022-11-16T09:24:55.631Z,9.45
2022-11-16T09:27:25.681Z,9.27
2022-11-16T09:29:56.512Z,5.38
2022-11-16T09:32:25.766Z,5.35
2022-11-16T09:34:55.112Z,3.97
2022-11-16T09:37:26.721Z,4.65
2022-11-16T09:39:55.948Z,4.68
2022-11-16T09:42:41.528Z,4.55
2022-11-16T09:45:28.247Z,4.10
2022-11-16T09:48:03.450Z,5.35
2022-11-16T09:56:22.343Z,6.57
2022-11-16T10:01:42.205Z,8.43
2022-11-16T10:04:23.682Z,5.65
2022-11-16T10:09:35.809Z,8.45
2022-11-16T10:18:23.986Z,4.05
2022-11-16T10:29:14.852Z,6.75
2022-11-16T10:32:22.438Z,4.22
2022-11-16T10:34:56.720Z,4.80
2022-11-16T10:37:31.296Z,5.30
2022-11-16T10:39:59.531Z,11.40
2022-11-16T10:42:36.909Z,18.05
2022-11-16T10:48:16.270Z,13.20
2022-11-16T10:50:48.477Z,14.45
2022-11-16T10:56:19.793Z,15.55
2022-11-16T11:01:37.801Z,17.20
2022-11-16T11:09:39.019Z,15.32
2022-11-16T11:12:38.766Z,13.73
2022-11-16T11:15:27.553Z,14.20
2022-11-16T11:21:19.387Z,16.05
2022-11-16T11:23:52.335Z,15.02
2022-11-16T11:26:39.372Z,17.48
2022-11-16T11:29:31.192Z,19.23
2022-11-16T11:32:06.082Z,13.73
2022-11-16T11:34:47.921Z,15.85
2022-11-16T11:37:21.925Z,13.98
2022-11-16T11:40:05.270Z,18.33
2022-11-16T11:42:33.438Z,16.45
2022-11-16T11:45:09.492Z,8.15
2022-11-16T11:48:00.915Z,9.85
2022-11-16T11:50:53.692Z,8.60
2022-11-16T11:56:21.315Z,5.90
2022-11-16T11:58:50.440Z,5.38
2022-11-16T12:10:31.886Z,4.00
2022-11-16T12:26:57.113Z,7.30
2022-11-16T12:29:27.724Z,5.97
2022-11-16T12:37:21.605Z,5.50
2022-11-16T13:05:21.175Z,16.77
2022-11-16T13:07:56.327Z,12.68
2022-11-16T13:10:28.655Z,15.38
2022-11-16T13:15:54.352Z,15.48
2022-11-16T13:18:25.003Z,13.88
2022-11-16T13:26:24.847Z,10.63
2022-11-16T13:31:39.313Z,16.25
2022-11-16T13:34:14.983Z,18.05
2022-11-16T13:36:45.647Z,14.40
2022-11-16T13:39:22.023Z,15.38
2022-11-16T13:42:06.119Z,19.88
2022-11-16T13:44:35.249Z,15.48
2022-11-16T13:47:07.561Z,10.85
2022-11-16T13:49:42.198Z,11.55
2022-11-16T13:52:48.259Z,9.80
2022-11-16T13:55:15.883Z,7.53
2022-11-16T13:57:54.551Z,10.07
2022-11-16T14:00:39.553Z,11.95
2022-11-16T14:03:31.823Z,9.07
2022-11-16T14:06:00.434Z,12.30
2022-11-16T14:11:25.754Z,12.55
2022-11-16T14:13:56.812Z,8.80
2022-11-16T14:19:06.285Z,12.82
2022-11-16T14:32:54.579Z,19.20
2022-11-16T14:35:47.566Z,14.82
2022-11-16T14:38:31.286Z,10.85
2022-11-16T14:41:03.157Z,11.55
2022-11-16T14:43:41.689Z,10.48
2022-11-16T14:49:16.167Z,8.55
2022-11-16T14:51:49.675Z,9.57
2022-11-16T14:57:01.850Z,14.93
2022-11-16T14:59:32.231Z,12.40
2022-11-16T15:02:13.522Z,18.73
2022-11-16T15:04:45.174Z,10.65
2022-11-16T15:07:24.105Z,9.10
2022-11-16T15:10:00.130Z,8.05
2022-11-16T15:12:42.631Z,7.32
2022-11-16T15:18:07.612Z,9.25
2022-11-16T15:20:42.531Z,6.78
2022-11-16T15:23:15.561Z,3.20
2022-11-16T15:25:47.791Z,5.47
2022-11-16T15:28:22.845Z,6.22
2022-11-16T15:31:19.711Z,7.07
2022-11-16T15:34:09.656Z,3.78
2022-11-16T15:36:41.938Z,4.22
2022-11-16T15:39:19.842Z,4.78
2022-11-16T15:42:02.189Z,5.20
2022-11-16T15:44:37.403Z,5.45
2022-11-16T15:47:13.396Z,3.67
2022-11-16T15:49:54.352Z,4.55
2022-11-16T15:52:44.430Z,4.22
2022-11-16T15:58:15.446Z,5.68
2022-11-16T16:00:53.107Z,8.10
2022-11-16T16:03:38.921Z,4.95
2022-11-16T16:06:57.657Z,3.67
2022-11-16T16:09:55.633Z,4.53
2022-11-16T16:12:51.917Z,4.22
2022-11-16T16:18:50.286Z,4.80
2022-11-16T16:22:04.073Z,5.10
2022-11-16T16:27:47.013Z,14.27
2022-11-16T16:31:00.276Z,9.52
2022-11-16T16:33:59.921Z,13.73
2022-11-16T16:36:37.364Z,8.40
2022-11-16T16:39:38.521Z,7.97
2022-11-16T17:18:42.874Z,5.05
2022-11-16T17:29:22.092Z,9.80
2022-11-16T17:32:40.335Z,6.55
2022-11-16T17:36:23.878Z,8.40
2022-11-16T17:53:55.925Z,6.43
2022-11-16T18:04:51.723Z,6.22
2022-11-16T18:08:38.519Z,5.40
2022-11-16T18:11:46.487Z,6.43
2022-11-16T18:15:29.525Z,8.80
2022-11-16T18:18:59.024Z,4.32
2022-11-16T18:32:08.702Z,6.32
2022-11-16T18:36:09.944Z,4.68
2022-11-16T18:48:07.651Z,4.72
